ASL792 LYKV-LIBD
Flight info
| Callsign | ASL792 |
|---|---|
| Flight time | 0h 48m |
| Altitude | 36000 |
| Route | TORTO DCT GISAM/N0441F350 DCT LUMAR |
| Aircraft | A20N/M-SDE2E3FGHIRWXY/LB1 |
Departure
| Time | 2026-04-25 22:31 |
|---|---|
| Airport | Morava Airport (LYKV) |
Arrival
| Time | 2026-04-25 23:19 |
|---|---|
| Airport | Bari Karol Wojtyła International Airport (LIBD) |
| Time | Latitude | Longitude | Altitude | Speed | Heading |
|---|---|---|---|---|---|
| 2026-04-25 22:12 | 43.81617 | 20.59399 | 682 ft | 0 kts | 268° |
| 2026-04-25 22:21 | 43.81618 | 20.59406 | 683 ft | 2 kts | 270° |
| 2026-04-25 22:21 | 43.81617 | 20.59427 | 683 ft | 2 kts | 270° |
| 2026-04-25 22:22 | 43.81617 | 20.59447 | 683 ft | 2 kts | 270° |
| 2026-04-25 22:22 | 43.81617 | 20.59468 | 683 ft | 2 kts | 270° |
| 2026-04-25 22:22 | 43.81617 | 20.59489 | 683 ft | 2 kts | 270° |
| 2026-04-25 22:22 | 43.81617 | 20.59505 | 683 ft | 0 kts | 270° |
| 2026-04-25 22:23 | 43.81617 | 20.59511 | 683 ft | 0 kts | 234° |
| 2026-04-25 22:23 | 43.81619 | 20.59514 | 683 ft | 0 kts | 229° |
| 2026-04-25 22:24 | 43.81618 | 20.59512 | 682 ft | 1 kts | 229° |
| 2026-04-25 22:25 | 43.81610 | 20.59499 | 682 ft | 2 kts | 236° |
| 2026-04-25 22:25 | 43.81599 | 20.59464 | 682 ft | 6 kts | 255° |
| 2026-04-25 22:25 | 43.81558 | 20.59439 | 681 ft | 10 kts | 155° |
| 2026-04-25 22:25 | 43.81496 | 20.59404 | 680 ft | 11 kts | 250° |
| 2026-04-25 22:26 | 43.81520 | 20.59317 | 681 ft | 9 kts | 313° |
| 2026-04-25 22:26 | 43.81567 | 20.59250 | 682 ft | 10 kts | 316° |
| 2026-04-25 22:26 | 43.81627 | 20.59172 | 683 ft | 12 kts | 317° |
| 2026-04-25 22:26 | 43.81692 | 20.59090 | 684 ft | 13 kts | 318° |
| 2026-04-25 22:27 | 43.81760 | 20.59005 | 685 ft | 13 kts | 318° |
| 2026-04-25 22:27 | 43.81834 | 20.58913 | 687 ft | 14 kts | 319° |
| 2026-04-25 22:27 | 43.81901 | 20.58815 | 688 ft | 13 kts | 276° |
| 2026-04-25 22:27 | 43.81853 | 20.58723 | 687 ft | 11 kts | 219° |
| 2026-04-25 22:28 | 43.81776 | 20.58685 | 686 ft | 12 kts | 173° |
| 2026-04-25 22:28 | 43.81673 | 20.58785 | 684 ft | 22 kts | 139° |
| 2026-04-25 22:28 | 43.81554 | 20.58932 | 681 ft | 23 kts | 138° |
| 2026-04-25 22:28 | 43.81434 | 20.59080 | 679 ft | 23 kts | 139° |
| 2026-04-25 22:29 | 43.81313 | 20.59232 | 677 ft | 23 kts | 137° |
| 2026-04-25 22:29 | 43.81193 | 20.59381 | 677 ft | 22 kts | 138° |
| 2026-04-25 22:29 | 43.81112 | 20.59494 | 677 ft | 8 kts | 172° |
| 2026-04-25 22:30 | 43.81222 | 20.59337 | 677 ft | 50 kts | 318° |
| 2026-04-25 22:30 | 43.81677 | 20.58774 | 684 ft | 120 kts | 319° |
| 2026-04-25 22:30 | 43.82436 | 20.57820 | 765 ft | 167 kts | 319° |
| 2026-04-25 22:30 | 43.83009 | 20.57124 | 1197 ft | 166 kts | 319° |
| 2026-04-25 22:31 | 43.84162 | 20.55753 | 2052 ft | 168 kts | 319° |
| 2026-04-25 22:31 | 43.85030 | 20.54659 | 2651 ft | 174 kts | 318° |
| 2026-04-25 22:31 | 43.85952 | 20.53492 | 3095 ft | 190 kts | 318° |
| 2026-04-25 22:31 | 43.86970 | 20.52213 | 3551 ft | 207 kts | 319° |
| 2026-04-25 22:32 | 43.88016 | 20.50664 | 3945 ft | 232 kts | 299° |
| 2026-04-25 22:32 | 43.88334 | 20.48439 | 4488 ft | 251 kts | 262° |
| 2026-04-25 22:32 | 43.87738 | 20.46110 | 5187 ft | 264 kts | 248° |
| 2026-04-25 22:32 | 43.87019 | 20.43762 | 6001 ft | 269 kts | 250° |
| 2026-04-25 22:33 | 43.86334 | 20.41374 | 6963 ft | 271 kts | 251° |
| 2026-04-25 22:33 | 43.85649 | 20.38924 | 7846 ft | 275 kts | 251° |
| 2026-04-25 22:33 | 43.84966 | 20.36463 | 8646 ft | 281 kts | 251° |
| 2026-04-25 22:33 | 43.84256 | 20.33906 | 9474 ft | 287 kts | 251° |
| 2026-04-25 22:34 | 43.83543 | 20.31341 | 10239 ft | 292 kts | 251° |
| 2026-04-25 22:34 | 43.82812 | 20.28716 | 11056 ft | 296 kts | 251° |
| 2026-04-25 22:34 | 43.82068 | 20.26056 | 11880 ft | 299 kts | 251° |
| 2026-04-25 22:34 | 43.81321 | 20.23388 | 12706 ft | 301 kts | 250° |
| 2026-04-25 22:35 | 43.80562 | 20.20683 | 13504 ft | 304 kts | 251° |
| 2026-04-25 22:35 | 43.79797 | 20.17956 | 14279 ft | 307 kts | 250° |
| 2026-04-25 22:35 | 43.79033 | 20.15235 | 15052 ft | 310 kts | 251° |
| 2026-04-25 22:35 | 43.78250 | 20.12451 | 15833 ft | 312 kts | 250° |
| 2026-04-25 22:36 | 43.77465 | 20.09672 | 16597 ft | 315 kts | 250° |
| 2026-04-25 22:36 | 43.76671 | 20.06854 | 17348 ft | 317 kts | 250° |
| 2026-04-25 22:36 | 43.75870 | 20.04018 | 18072 ft | 320 kts | 250° |
| 2026-04-25 22:36 | 43.75059 | 20.01148 | 18774 ft | 323 kts | 250° |
| 2026-04-25 22:37 | 43.74244 | 19.98269 | 19443 ft | 326 kts | 250° |
| 2026-04-25 22:37 | 43.73419 | 19.95360 | 20103 ft | 328 kts | 251° |
| 2026-04-25 22:37 | 43.72589 | 19.92432 | 20756 ft | 331 kts | 251° |
| 2026-04-25 22:37 | 43.71724 | 19.89390 | 21416 ft | 334 kts | 251° |
| 2026-04-25 22:38 | 43.70878 | 19.86415 | 22051 ft | 336 kts | 251° |
| 2026-04-25 22:38 | 43.70020 | 19.83402 | 22674 ft | 339 kts | 251° |
| 2026-04-25 22:38 | 43.69159 | 19.80383 | 23283 ft | 341 kts | 251° |
| 2026-04-25 22:38 | 43.68291 | 19.77342 | 23887 ft | 343 kts | 251° |
| 2026-04-25 22:39 | 43.67221 | 19.74305 | 24296 ft | 354 kts | 240° |
| 2026-04-25 22:39 | 43.65690 | 19.71564 | 24524 ft | 370 kts | 229° |
| 2026-04-25 22:39 | 43.63774 | 19.69151 | 24751 ft | 383 kts | 224° |
| 2026-04-25 22:39 | 43.61702 | 19.66741 | 24964 ft | 395 kts | 223° |
| 2026-04-25 22:40 | 43.59553 | 19.64267 | 25169 ft | 406 kts | 223° |
| 2026-04-25 22:40 | 43.57396 | 19.61779 | 25434 ft | 414 kts | 223° |
| 2026-04-25 22:40 | 43.55154 | 19.59190 | 25875 ft | 418 kts | 223° |
| 2026-04-25 22:40 | 43.52920 | 19.56604 | 26358 ft | 420 kts | 223° |
| 2026-04-25 22:41 | 43.50645 | 19.53972 | 26822 ft | 422 kts | 223° |
| 2026-04-25 22:41 | 43.48386 | 19.51355 | 27257 ft | 424 kts | 223° |
| 2026-04-25 22:41 | 43.46117 | 19.48727 | 27681 ft | 427 kts | 223° |
| 2026-04-25 22:41 | 43.43837 | 19.46087 | 28086 ft | 429 kts | 223° |
| 2026-04-25 22:42 | 43.41577 | 19.43474 | 28591 ft | 428 kts | 223° |
| 2026-04-25 22:42 | 43.39301 | 19.40845 | 29182 ft | 426 kts | 223° |
| 2026-04-25 22:42 | 43.37044 | 19.38241 | 29737 ft | 424 kts | 223° |
| 2026-04-25 22:42 | 43.34823 | 19.35681 | 30250 ft | 422 kts | 224° |
| 2026-04-25 22:43 | 43.32552 | 19.33058 | 30746 ft | 422 kts | 223° |
| 2026-04-25 22:43 | 43.30336 | 19.30493 | 31220 ft | 421 kts | 223° |
| 2026-04-25 22:43 | 43.28097 | 19.27905 | 31692 ft | 420 kts | 223° |
| 2026-04-25 22:43 | 43.25861 | 19.25327 | 32155 ft | 419 kts | 223° |
| 2026-04-25 22:44 | 43.23631 | 19.22763 | 32614 ft | 418 kts | 223° |
| 2026-04-25 22:44 | 43.21425 | 19.20230 | 33048 ft | 417 kts | 223° |
| 2026-04-25 22:44 | 43.19208 | 19.17687 | 33471 ft | 416 kts | 223° |
| 2026-04-25 22:44 | 43.16991 | 19.15148 | 33866 ft | 416 kts | 223° |
| 2026-04-25 22:45 | 43.14778 | 19.12617 | 34246 ft | 415 kts | 223° |
| 2026-04-25 22:45 | 43.12563 | 19.10086 | 34612 ft | 415 kts | 223° |
| 2026-04-25 22:45 | 43.10345 | 19.07553 | 34914 ft | 416 kts | 223° |
| 2026-04-25 22:45 | 43.08144 | 19.05044 | 35192 ft | 418 kts | 223° |
| 2026-04-25 22:46 | 43.05902 | 19.02490 | 35466 ft | 419 kts | 223° |
| 2026-04-25 22:46 | 43.03664 | 18.99943 | 35721 ft | 421 kts | 223° |
| 2026-04-25 22:46 | 43.01411 | 18.97384 | 35972 ft | 422 kts | 223° |
| 2026-04-25 22:46 | 42.99179 | 18.94849 | 36063 ft | 424 kts | 223° |
| 2026-04-25 22:47 | 42.94645 | 18.89709 | 36080 ft | 424 kts | 223° |
| 2026-04-25 22:47 | 42.90121 | 18.84587 | 36078 ft | 424 kts | 223° |
| 2026-04-25 22:48 | 42.85571 | 18.79478 | 36078 ft | 423 kts | 223° |
| 2026-04-25 22:48 | 42.81045 | 18.74401 | 36077 ft | 423 kts | 223° |
| 2026-04-25 22:49 | 42.76478 | 18.69270 | 36070 ft | 424 kts | 223° |
| 2026-04-25 22:49 | 42.71915 | 18.64154 | 36067 ft | 425 kts | 223° |
| 2026-04-25 22:50 | 42.67362 | 18.59054 | 36058 ft | 425 kts | 223° |
| 2026-04-25 22:50 | 42.62809 | 18.53964 | 36046 ft | 425 kts | 223° |
| 2026-04-25 22:51 | 42.58202 | 18.48823 | 36042 ft | 425 kts | 223° |
| 2026-04-25 22:51 | 42.53598 | 18.43696 | 36034 ft | 425 kts | 222° |
| 2026-04-25 22:52 | 42.49028 | 18.38616 | 36030 ft | 424 kts | 223° |
| 2026-04-25 22:52 | 42.45206 | 18.34374 | 36026 ft | 425 kts | 222° |
| 2026-04-25 22:53 | 42.39898 | 18.28464 | 36020 ft | 426 kts | 222° |
| 2026-04-25 22:53 | 42.35287 | 18.23354 | 36015 ft | 426 kts | 221° |
| 2026-04-25 22:54 | 42.32987 | 18.20813 | 35914 ft | 427 kts | 221° |
| 2026-04-25 22:54 | 42.30673 | 18.18257 | 35068 ft | 432 kts | 221° |
| 2026-04-25 22:54 | 42.28360 | 18.15710 | 34359 ft | 432 kts | 221° |
| 2026-04-25 22:54 | 42.26046 | 18.13164 | 33740 ft | 431 kts | 221° |
| 2026-04-25 22:55 | 42.23734 | 18.10622 | 33114 ft | 430 kts | 221° |
| 2026-04-25 22:55 | 42.21415 | 18.08075 | 32474 ft | 430 kts | 221° |
| 2026-04-25 22:55 | 42.19088 | 18.05522 | 31825 ft | 430 kts | 221° |
| 2026-04-25 22:55 | 42.16738 | 18.02947 | 31154 ft | 430 kts | 221° |
| 2026-04-25 22:56 | 42.14448 | 18.00438 | 30492 ft | 430 kts | 221° |
| 2026-04-25 22:56 | 42.12124 | 17.97898 | 29818 ft | 430 kts | 221° |
| 2026-04-25 22:56 | 42.09790 | 17.95350 | 29132 ft | 430 kts | 221° |
| 2026-04-25 22:56 | 42.07499 | 17.92852 | 28439 ft | 431 kts | 221° |
| 2026-04-25 22:57 | 42.05159 | 17.90303 | 27715 ft | 432 kts | 221° |
| 2026-04-25 22:57 | 42.02841 | 17.87779 | 27208 ft | 428 kts | 221° |
| 2026-04-25 22:57 | 42.00552 | 17.85290 | 26732 ft | 423 kts | 221° |
| 2026-04-25 22:57 | 41.98254 | 17.82795 | 26245 ft | 419 kts | 221° |
| 2026-04-25 22:58 | 41.96005 | 17.80351 | 25760 ft | 416 kts | 221° |
| 2026-04-25 22:58 | 41.93732 | 17.77958 | 25289 ft | 413 kts | 218° |
| 2026-04-25 22:58 | 41.91359 | 17.75802 | 24827 ft | 410 kts | 214° |
| 2026-04-25 22:58 | 41.88902 | 17.73921 | 24363 ft | 408 kts | 210° |
| 2026-04-25 22:59 | 41.86362 | 17.72246 | 23883 ft | 407 kts | 208° |
| 2026-04-25 22:59 | 41.83837 | 17.70621 | 23402 ft | 405 kts | 208° |
| 2026-04-25 22:59 | 41.81315 | 17.68997 | 22915 ft | 402 kts | 208° |
| 2026-04-25 22:59 | 41.78797 | 17.67370 | 22438 ft | 400 kts | 208° |
| 2026-04-25 23:00 | 41.76308 | 17.65759 | 21963 ft | 398 kts | 208° |
| 2026-04-25 23:00 | 41.73826 | 17.64150 | 21489 ft | 395 kts | 208° |
| 2026-04-25 23:00 | 41.71378 | 17.62562 | 21018 ft | 393 kts | 208° |
| 2026-04-25 23:00 | 41.68928 | 17.60976 | 20542 ft | 391 kts | 208° |
| 2026-04-25 23:01 | 41.66419 | 17.59352 | 20052 ft | 389 kts | 208° |
| 2026-04-25 23:01 | 41.63996 | 17.57731 | 19564 ft | 386 kts | 213° |
| 2026-04-25 23:01 | 41.61898 | 17.55593 | 19087 ft | 381 kts | 227° |
| 2026-04-25 23:01 | 41.60263 | 17.52879 | 18624 ft | 376 kts | 240° |
| 2026-04-25 23:02 | 41.58932 | 17.49853 | 18148 ft | 373 kts | 243° |
| 2026-04-25 23:02 | 41.57652 | 17.46804 | 17670 ft | 371 kts | 243° |
| 2026-04-25 23:02 | 41.56385 | 17.43817 | 17206 ft | 370 kts | 242° |
| 2026-04-25 23:02 | 41.55114 | 17.40857 | 16750 ft | 368 kts | 242° |
| 2026-04-25 23:03 | 41.53833 | 17.37899 | 16282 ft | 366 kts | 242° |
| 2026-04-25 23:03 | 41.52557 | 17.34961 | 15808 ft | 365 kts | 241° |
| 2026-04-25 23:03 | 41.51294 | 17.32050 | 15358 ft | 363 kts | 241° |
| 2026-04-25 23:03 | 41.50039 | 17.29155 | 14900 ft | 361 kts | 241° |
| 2026-04-25 23:04 | 41.48785 | 17.26271 | 14443 ft | 359 kts | 241° |
| 2026-04-25 23:04 | 41.47940 | 17.24332 | 14130 ft | 358 kts | 241° |
| 2026-04-25 23:04 | 41.46288 | 17.20546 | 13546 ft | 356 kts | 241° |
| 2026-04-25 23:04 | 41.45054 | 17.17725 | 13098 ft | 354 kts | 241° |
| 2026-04-25 23:05 | 41.43813 | 17.14892 | 12648 ft | 353 kts | 242° |
| 2026-04-25 23:05 | 41.42577 | 17.12071 | 12191 ft | 351 kts | 242° |
| 2026-04-25 23:05 | 41.41336 | 17.09244 | 11726 ft | 350 kts | 242° |
| 2026-04-25 23:05 | 41.40101 | 17.06433 | 11274 ft | 348 kts | 242° |
| 2026-04-25 23:06 | 41.38886 | 17.03667 | 10821 ft | 346 kts | 242° |
| 2026-04-25 23:06 | 41.37680 | 17.00924 | 10394 ft | 344 kts | 242° |
| 2026-04-25 23:06 | 41.36492 | 16.98229 | 10256 ft | 331 kts | 242° |
| 2026-04-25 23:06 | 41.35328 | 16.95592 | 10171 ft | 317 kts | 242° |
| 2026-04-25 23:07 | 41.34217 | 16.93077 | 10083 ft | 303 kts | 242° |
| 2026-04-25 23:07 | 41.33163 | 16.90691 | 9866 ft | 297 kts | 242° |
| 2026-04-25 23:07 | 41.32121 | 16.88327 | 9538 ft | 295 kts | 242° |
| 2026-04-25 23:07 | 41.31095 | 16.86003 | 9166 ft | 293 kts | 242° |
| 2026-04-25 23:08 | 41.30062 | 16.83668 | 8864 ft | 290 kts | 242° |
| 2026-04-25 23:08 | 41.29052 | 16.81383 | 8526 ft | 287 kts | 242° |
| 2026-04-25 23:08 | 41.28051 | 16.79123 | 8192 ft | 284 kts | 243° |
| 2026-04-25 23:08 | 41.27042 | 16.76847 | 7886 ft | 281 kts | 242° |
| 2026-04-25 23:09 | 41.26066 | 16.74649 | 7603 ft | 279 kts | 243° |
| 2026-04-25 23:09 | 41.25080 | 16.72430 | 7290 ft | 277 kts | 243° |
| 2026-04-25 23:09 | 41.24095 | 16.70212 | 6964 ft | 275 kts | 243° |
| 2026-04-25 23:09 | 41.23128 | 16.68040 | 6650 ft | 272 kts | 243° |
| 2026-04-25 23:10 | 41.22172 | 16.65892 | 6348 ft | 270 kts | 243° |
| 2026-04-25 23:10 | 41.21241 | 16.63782 | 6258 ft | 259 kts | 245° |
| 2026-04-25 23:10 | 41.20476 | 16.61704 | 6148 ft | 248 kts | 251° |
| 2026-04-25 23:10 | 41.19856 | 16.59598 | 5876 ft | 246 kts | 253° |
| 2026-04-25 23:11 | 41.19258 | 16.57473 | 5583 ft | 243 kts | 253° |
| 2026-04-25 23:11 | 41.18673 | 16.55395 | 5315 ft | 240 kts | 253° |
| 2026-04-25 23:11 | 41.18090 | 16.53335 | 5080 ft | 237 kts | 253° |
| 2026-04-25 23:11 | 41.17511 | 16.51304 | 4830 ft | 235 kts | 253° |
| 2026-04-25 23:12 | 41.16930 | 16.49270 | 4568 ft | 233 kts | 253° |
| 2026-04-25 23:12 | 41.16360 | 16.47279 | 4322 ft | 231 kts | 253° |
| 2026-04-25 23:12 | 41.15798 | 16.45313 | 4070 ft | 227 kts | 252° |
| 2026-04-25 23:12 | 41.15154 | 16.43454 | 3995 ft | 224 kts | 235° |
| 2026-04-25 23:13 | 41.13861 | 16.42314 | 3987 ft | 231 kts | 193° |
| 2026-04-25 23:13 | 41.12234 | 16.42475 | 3988 ft | 235 kts | 160° |
| 2026-04-25 23:13 | 41.10731 | 16.43438 | 3996 ft | 238 kts | 153° |
| 2026-04-25 23:13 | 41.09254 | 16.44446 | 3998 ft | 239 kts | 154° |
| 2026-04-25 23:14 | 41.07729 | 16.45427 | 3998 ft | 239 kts | 156° |
| 2026-04-25 23:14 | 41.06307 | 16.46584 | 3958 ft | 238 kts | 131° |
| 2026-04-25 23:14 | 41.05629 | 16.48596 | 3813 ft | 232 kts | 88° |
| 2026-04-25 23:14 | 41.06060 | 16.50583 | 3645 ft | 222 kts | 56° |
| 2026-04-25 23:15 | 41.06874 | 16.52366 | 3458 ft | 224 kts | 57° |
| 2026-04-25 23:15 | 41.07583 | 16.54200 | 3272 ft | 221 kts | 62° |
| 2026-04-25 23:15 | 41.08207 | 16.56086 | 3038 ft | 219 kts | 65° |
| 2026-04-25 23:15 | 41.08767 | 16.57982 | 2729 ft | 219 kts | 67° |
| 2026-04-25 23:16 | 41.09295 | 16.59872 | 2427 ft | 219 kts | 68° |
| 2026-04-25 23:16 | 41.09823 | 16.61776 | 2139 ft | 213 kts | 68° |
| 2026-04-25 23:16 | 41.10332 | 16.63592 | 1860 ft | 203 kts | 68° |
| 2026-04-25 23:16 | 41.10812 | 16.65299 | 1658 ft | 188 kts | 68° |
| 2026-04-25 23:17 | 41.11253 | 16.66860 | 1393 ft | 176 kts | 68° |
| 2026-04-25 23:17 | 41.11678 | 16.68350 | 1096 ft | 169 kts | 68° |
| 2026-04-25 23:17 | 41.12086 | 16.69768 | 821 ft | 161 kts | 69° |
| 2026-04-25 23:17 | 41.12465 | 16.71117 | 591 ft | 151 kts | 70° |
| 2026-04-25 23:18 | 41.12823 | 16.72384 | 398 ft | 147 kts | 71° |
| 2026-04-25 23:18 | 41.13179 | 16.73655 | 271 ft | 147 kts | 71° |
| 2026-04-25 23:18 | 41.13535 | 16.74931 | 171 ft | 141 kts | 71° |
| 2026-04-25 23:18 | 41.13774 | 16.75775 | 147 ft | 59 kts | 69° |
| 2026-04-25 23:19 | 41.13915 | 16.76284 | 134 ft | 56 kts | 70° |
| 2026-04-25 23:19 | 41.13996 | 16.76608 | 128 ft | 22 kts | 93° |
| 2026-04-25 23:19 | 41.13955 | 16.76763 | 127 ft | 16 kts | 117° |
| 2026-04-25 23:19 | 41.13872 | 16.76817 | 127 ft | 15 kts | 236° |
| 2026-04-25 23:20 | 41.13836 | 16.76689 | 131 ft | 13 kts | 250° |
| 2026-04-25 23:20 | 41.13793 | 16.76594 | 133 ft | 11 kts | 212° |
| 2026-04-25 23:20 | 41.13721 | 16.76561 | 135 ft | 10 kts | 199° |
| 2026-04-25 23:20 | 41.13663 | 16.76517 | 138 ft | 8 kts | 221° |
| 2026-04-25 23:21 | 41.13609 | 16.76494 | 139 ft | 8 kts | 168° |
| 2026-04-25 23:21 | 41.13581 | 16.76508 | 139 ft | 0 kts | 157° |